createdAt,value
2023-04-15T00:02:20.339Z,8.90
2023-04-15T00:07:12.870Z,8.80
2023-04-15T00:12:05.917Z,8.80
2023-04-15T00:16:58.612Z,8.80
2023-04-15T00:21:50.795Z,8.70
2023-04-15T00:26:43.015Z,8.70
2023-04-15T00:31:35.062Z,8.70
2023-04-15T00:36:27.474Z,8.70
2023-04-15T00:41:19.701Z,8.70
2023-04-15T00:46:14.472Z,8.70
2023-04-15T00:51:07.661Z,8.80
2023-04-15T00:55:59.728Z,8.70
2023-04-15T01:00:54.457Z,8.70
2023-04-15T01:11:54.126Z,8.80
2023-04-15T01:16:47.033Z,8.70
2023-04-15T01:21:39.854Z,8.80
2023-04-15T01:26:32.470Z,8.70
2023-04-15T01:31:24.594Z,8.70
2023-04-15T01:36:16.737Z,8.70
2023-04-15T01:41:09.277Z,8.70
2023-04-15T01:46:01.668Z,8.80
2023-04-15T01:50:55.216Z,8.80
2023-04-15T01:55:47.395Z,8.80
2023-04-15T02:00:40.124Z,8.80
2023-04-15T02:05:32.188Z,8.70
2023-04-15T02:10:24.332Z,8.70
2023-04-15T02:15:16.507Z,8.80
2023-04-15T02:20:09.439Z,8.70
2023-04-15T02:25:01.430Z,8.80
2023-04-15T02:29:57.210Z,8.70
2023-04-15T02:34:49.212Z,8.70
2023-04-15T02:39:41.256Z,8.70
2023-04-15T02:44:34.480Z,8.80
2023-04-15T02:49:31.053Z,8.80
2023-04-15T02:54:23.855Z,8.80
2023-04-15T02:59:17.259Z,8.80
2023-04-15T03:04:09.645Z,8.80
2023-04-15T03:09:03.657Z,8.70
2023-04-15T03:13:59.729Z,8.80
2023-04-15T03:18:57.103Z,8.80
2023-04-15T03:23:50.024Z,8.80
2023-04-15T03:28:42.664Z,8.80
2023-04-15T03:33:35.061Z,8.80
2023-04-15T03:38:27.150Z,8.70
2023-04-15T03:43:19.192Z,8.80
2023-04-15T03:48:17.820Z,8.80
2023-04-15T03:53:10.491Z,8.80
2023-04-15T03:58:02.545Z,8.80
2023-04-15T04:02:54.681Z,8.80
2023-04-15T04:07:47.438Z,8.80
2023-04-15T04:12:39.453Z,8.80
2023-04-15T04:17:31.570Z,8.80
2023-04-15T04:22:24.652Z,8.70
2023-04-15T04:27:16.828Z,8.80
2023-04-15T04:32:08.876Z,8.80
2023-04-15T04:37:01.348Z,8.80
2023-04-15T04:41:53.472Z,8.80
2023-04-15T04:46:45.454Z,8.80
2023-04-15T04:51:37.605Z,8.90
2023-04-15T04:56:29.681Z,8.90
2023-04-15T05:01:21.942Z,8.90
2023-04-15T05:06:14.108Z,8.90
2023-04-15T05:11:06.286Z,9.00
2023-04-15T05:15:58.295Z,9.00
2023-04-15T05:20:50.524Z,9.00
2023-04-15T05:25:42.592Z,9.10
2023-04-15T05:30:35.971Z,9.10
2023-04-15T05:35:27.962Z,9.10
2023-04-15T05:40:20.464Z,9.10
2023-04-15T05:45:12.555Z,9.10
2023-04-15T05:50:06.614Z,9.20
2023-04-15T05:54:58.717Z,9.20
2023-04-15T05:59:52.895Z,9.20
2023-04-15T06:04:45.005Z,9.20
2023-04-15T06:09:37.062Z,9.20
2023-04-15T06:14:29.202Z,9.30
2023-04-15T06:19:21.138Z,9.30
2023-04-15T06:24:13.542Z,9.30
2023-04-15T06:29:05.756Z,9.30
2023-04-15T06:33:57.760Z,9.30
2023-04-15T06:38:49.775Z,9.40
2023-04-15T06:43:41.780Z,9.50
2023-04-15T06:48:33.989Z,9.60
2023-04-15T06:53:29.349Z,9.70
2023-04-15T06:58:21.868Z,9.80
2023-04-15T07:03:15.168Z,9.80
2023-04-15T07:08:07.753Z,9.80
2023-04-15T07:12:59.834Z,9.80
2023-04-15T07:17:51.818Z,9.90
2023-04-15T07:22:44.312Z,10.20
2023-04-15T07:27:36.709Z,10.20
2023-04-15T07:32:28.843Z,10.30
2023-04-15T07:37:20.866Z,10.40
2023-04-15T07:42:13.009Z,10.40
2023-04-15T07:47:04.967Z,10.30
2023-04-15T07:51:57.904Z,10.20
2023-04-15T07:56:49.972Z,10.30
2023-04-15T08:01:42.596Z,10.50
2023-04-15T08:06:34.842Z,10.70
2023-04-15T08:11:27.839Z,10.90
2023-04-15T08:16:27.869Z,11.30
2023-04-15T08:21:20.979Z,11.80
2023-04-15T08:26:15.560Z,11.80
2023-04-15T08:31:08.071Z,11.80
2023-04-15T08:36:00.272Z,11.80
2023-04-15T08:40:52.637Z,12.00
2023-04-15T08:45:46.424Z,12.30
2023-04-15T08:50:38.616Z,12.70
2023-04-15T08:55:35.886Z,12.90
2023-04-15T09:00:29.259Z,12.60
2023-04-15T09:05:21.649Z,12.40
2023-04-15T09:10:13.781Z,12.20
2023-04-15T09:15:06.388Z,11.80
2023-04-15T09:20:12.578Z,11.20
2023-04-15T09:25:05.093Z,10.80
2023-04-15T09:29:57.147Z,10.80
2023-04-15T09:34:49.494Z,10.70
2023-04-15T09:39:52.658Z,10.70
2023-04-15T09:44:44.789Z,10.50
2023-04-15T09:49:37.094Z,10.30
2023-04-15T09:54:34.631Z,10.00
2023-04-15T09:59:26.638Z,9.80
2023-04-15T10:04:18.862Z,9.90
2023-04-15T10:09:11.128Z,10.20
2023-04-15T10:14:04.239Z,10.40
2023-04-15T10:18:58.683Z,10.30
2023-04-15T10:23:51.668Z,10.20
2023-04-15T10:28:44.458Z,10.40
2023-04-15T10:33:36.724Z,10.60
2023-04-15T10:38:44.611Z,10.50
2023-04-15T10:43:37.595Z,10.50
2023-04-15T10:48:31.338Z,10.50
2023-04-15T10:53:30.896Z,10.50
2023-04-15T10:58:26.099Z,10.90
2023-04-15T11:03:18.420Z,11.00
2023-04-15T11:08:11.416Z,11.30
2023-04-15T11:13:10.695Z,11.50
2023-04-15T11:18:25.822Z,11.30
2023-04-15T11:23:19.676Z,11.20
2023-04-15T11:28:12.824Z,11.30
2023-04-15T11:33:07.123Z,11.70
2023-04-15T11:38:02.854Z,11.80
2023-04-15T11:43:20.388Z,11.90
2023-04-15T11:48:14.208Z,12.30
2023-04-15T11:53:08.644Z,12.10
2023-04-15T11:58:08.900Z,12.00
2023-04-15T12:03:22.123Z,11.90
2023-04-15T12:08:14.313Z,11.70
2023-04-15T12:13:10.199Z,11.90
2023-04-15T12:18:02.429Z,11.90
2023-04-15T12:23:06.447Z,11.80
2023-04-15T12:27:59.474Z,12.00
2023-04-15T12:32:52.594Z,12.30
2023-04-15T12:37:44.747Z,12.70
2023-04-15T12:42:36.758Z,12.80
2023-04-15T12:47:28.867Z,12.60
2023-04-15T12:52:20.992Z,12.20
2023-04-15T12:57:13.040Z,12.10
2023-04-15T13:02:05.240Z,12.20
2023-04-15T13:06:57.589Z,12.50
2023-04-15T13:11:50.213Z,12.40
2023-04-15T13:16:42.166Z,12.40
2023-04-15T13:21:35.907Z,12.50
2023-04-15T13:26:28.550Z,12.60
2023-04-15T13:31:20.629Z,12.70
2023-04-15T13:36:12.829Z,12.60
2023-04-15T13:41:04.905Z,13.00
2023-04-15T13:45:57.015Z,13.40
2023-04-15T13:50:49.031Z,13.80
2023-04-15T13:55:42.757Z,14.40
2023-04-15T14:00:34.846Z,14.90
2023-04-15T14:05:26.958Z,14.90
2023-04-15T14:10:19.103Z,14.50
2023-04-15T14:15:11.392Z,14.50
2023-04-15T14:20:04.883Z,14.70
2023-04-15T14:24:56.952Z,15.20
2023-04-15T14:29:49.035Z,15.30
2023-04-15T14:34:41.125Z,15.10
2023-04-15T14:39:33.489Z,15.00
2023-04-15T14:44:25.706Z,15.00
2023-04-15T14:49:17.884Z,14.90
2023-04-15T14:54:11.146Z,15.00
2023-04-15T14:59:03.323Z,15.10
2023-04-15T15:03:55.624Z,15.30
2023-04-15T15:08:47.674Z,15.30
2023-04-15T15:13:39.712Z,15.30
2023-04-15T15:18:31.908Z,15.10
2023-04-15T15:23:24.035Z,15.20
2023-04-15T15:28:16.165Z,15.30
2023-04-15T15:33:08.474Z,15.30
2023-04-15T15:38:01.531Z,15.10
2023-04-15T15:42:53.684Z,15.00
2023-04-15T15:47:45.846Z,14.90
2023-04-15T15:52:38.089Z,14.50
2023-04-15T15:57:30.165Z,14.30
2023-04-15T16:02:37.577Z,14.10
2023-04-15T16:07:34.255Z,14.00
2023-04-15T16:12:26.838Z,13.70
2023-04-15T16:17:18.908Z,13.60
2023-04-15T16:22:11.169Z,13.60
2023-04-15T16:27:03.200Z,13.60
2023-04-15T16:31:56.594Z,13.60
2023-04-15T16:36:48.745Z,13.60
2023-04-15T16:41:42.712Z,13.40
2023-04-15T16:46:34.719Z,13.20
2023-04-15T16:51:27.620Z,13.10
2023-04-15T16:56:19.778Z,13.00
2023-04-15T17:01:12.126Z,12.90
2023-04-15T17:06:04.563Z,12.70
2023-04-15T17:10:58.429Z,12.60
2023-04-15T17:15:51.587Z,12.50
2023-04-15T17:20:44.350Z,12.40
2023-04-15T17:25:36.811Z,12.20
2023-04-15T17:30:28.962Z,12.00
2023-04-15T17:35:21.130Z,11.90
2023-04-15T17:40:13.869Z,11.80
2023-04-15T17:45:06.568Z,11.60
2023-04-15T17:49:58.580Z,11.50
2023-04-15T17:54:51.930Z,11.40
2023-04-15T17:59:45.162Z,11.30
2023-04-15T18:04:37.262Z,11.20
2023-04-15T18:09:29.349Z,11.10
2023-04-15T18:14:33.528Z,11.00
2023-04-15T18:19:26.532Z,11.00
2023-04-15T18:24:18.808Z,10.90
2023-04-15T18:29:11.213Z,10.80
2023-04-15T18:34:06.537Z,10.80
2023-04-15T18:38:59.220Z,10.70
2023-04-15T18:43:51.511Z,10.60
2023-04-15T18:48:43.562Z,10.50
2023-04-15T18:53:35.819Z,10.40
2023-04-15T18:58:27.968Z,10.30
2023-04-15T19:03:39.975Z,10.20
2023-04-15T19:08:32.154Z,10.10
2023-04-15T19:13:26.262Z,10.00
2023-04-15T19:18:18.729Z,10.00
2023-04-15T19:23:11.197Z,9.90
2023-04-15T19:28:03.347Z,9.90
2023-04-15T19:32:55.453Z,9.80
2023-04-15T19:37:48.076Z,9.70
2023-04-15T19:42:40.175Z,9.60
2023-04-15T19:47:33.838Z,9.60
2023-04-15T19:52:26.253Z,9.50
2023-04-15T19:57:18.441Z,9.50
2023-04-15T20:02:10.856Z,9.40
2023-04-15T20:07:03.123Z,9.40
2023-04-15T20:12:46.092Z,9.30
2023-04-15T20:17:07.298Z,9.20
2023-04-15T20:21:59.742Z,9.10
2023-04-15T20:26:51.764Z,9.00
2023-04-15T20:31:44.000Z,8.90
2023-04-15T20:36:36.018Z,8.80
2023-04-15T20:41:28.126Z,8.80
2023-04-15T20:46:21.786Z,8.70
2023-04-15T20:51:14.049Z,8.70
2023-04-15T20:56:06.495Z,8.70
2023-04-15T21:00:59.133Z,8.80
2023-04-15T21:05:51.376Z,8.80
2023-04-15T21:10:43.540Z,8.80
2023-04-15T21:15:35.744Z,8.80
2023-04-15T21:20:28.093Z,8.90
2023-04-15T21:25:20.446Z,8.90
2023-04-15T21:30:13.133Z,8.80
2023-04-15T21:35:08.417Z,8.70
2023-04-15T21:40:00.567Z,8.70
2023-04-15T21:44:52.571Z,8.70
2023-04-15T21:49:44.561Z,8.80
2023-04-15T21:54:38.052Z,8.70
2023-04-15T21:59:30.179Z,8.70
2023-04-15T22:04:22.390Z,8.70
2023-04-15T22:09:14.656Z,8.70
2023-04-15T22:14:06.796Z,8.70
2023-04-15T22:18:58.812Z,8.70
2023-04-15T22:23:51.605Z,8.70
2023-04-15T22:28:43.682Z,8.70
2023-04-15T22:33:36.080Z,8.70
2023-04-15T22:38:28.208Z,8.60
2023-04-15T22:43:20.505Z,8.70
2023-04-15T22:48:12.630Z,8.70
2023-04-15T22:53:04.633Z,8.70
2023-04-15T22:57:57.162Z,8.80
2023-04-15T23:02:49.263Z,8.70
2023-04-15T23:07:41.447Z,8.70
2023-04-15T23:12:33.543Z,8.60
2023-04-15T23:17:26.761Z,8.60
2023-04-15T23:22:19.313Z,8.50
2023-04-15T23:27:11.465Z,8.40
2023-04-15T23:32:03.486Z,8.40
2023-04-15T23:36:55.620Z,8.30
2023-04-15T23:41:48.215Z,8.30
2023-04-15T23:46:44.064Z,8.10
2023-04-15T23:51:36.280Z,8.10
2023-04-15T23:56:28.246Z,8.00
